Time,TemperatureF,DewpointF,PressureIn,WindDirection,WindDirectionDegrees,WindSpeedMPH,WindSpeedGustMPH,Humidity,HourlyPrecipIn,Conditions,Clouds,dailyrainin,SoftwareType,DateUTC
2013-01-29 00:10:00,32.2,30.7,29.91,NE,45,0.0,-999.0,94,-99.99,,,0.00,Acu-Link.com,2013-01-29 05:10:00,
2013-01-29 00:26:00,32.2,30.7,29.91,NE,45,0.0,-999.0,94,-99.99,,,0.01,Acu-Link.com,2013-01-29 05:26:00,
2013-01-29 00:41:00,32.2,30.7,29.91,NE,45,0.0,-999.0,94,-99.99,,,0.01,Acu-Link.com,2013-01-29 05:41:00,
2013-01-29 00:56:00,32.2,30.7,29.92,NE,45,0.0,-999.0,94,-99.99,,,0.01,Acu-Link.com,2013-01-29 05:56:00,
2013-01-29 01:14:00,32.2,30.7,29.92,NE,45,0.0,-999.0,94,-99.99,,,0.02,Acu-Link.com,2013-01-29 06:14:00,
2013-01-29 01:31:00,32.2,30.7,29.92,NE,45,0.0,-999.0,94,-99.99,,,0.02,Acu-Link.com,2013-01-29 06:31:00,
2013-01-29 05:21:00,32.4,31.1,29.96,NE,45,0.0,-999.0,95,-99.99,,,0.05,Acu-Link.com,2013-01-29 10:21:00,
2013-01-29 05:44:00,32.4,31.1,29.97,NE,45,0.0,-999.0,95,-99.99,,,0.05,Acu-Link.com,2013-01-29 10:44:00,
2013-01-29 06:03:00,32.5,31.2,29.97,NE,45,0.0,-999.0,95,-99.99,,,0.05,Acu-Link.com,2013-01-29 11:03:00,
2013-01-29 06:20:00,32.5,31.2,29.99,NE,45,0.0,-999.0,95,-99.99,,,0.05,Acu-Link.com,2013-01-29 11:20:00,
2013-01-29 06:35:00,32.5,31.2,29.98,NE,45,0.0,-999.0,95,-99.99,,,0.06,Acu-Link.com,2013-01-29 11:35:00,
2013-01-29 06:55:00,32.5,31.2,29.98,NE,45,0.0,-999.0,95,-99.99,,,0.06,Acu-Link.com,2013-01-29 11:55:00,
2013-01-29 07:10:00,32.5,31.2,29.98,NE,45,0.0,-999.0,95,-99.99,,,0.06,Acu-Link.com,2013-01-29 12:10:00,
2013-01-29 07:26:00,32.5,31.2,29.98,NE,45,0.0,-999.0,95,-99.99,,,0.06,Acu-Link.com,2013-01-29 12:26:00,
2013-01-29 07:41:00,32.5,31.2,29.99,NE,45,0.0,-999.0,95,-99.99,,,0.06,Acu-Link.com,2013-01-29 12:41:00,
2013-01-29 07:56:00,32.7,31.4,29.99,NE,45,0.0,-999.0,95,-99.99,,,0.06,Acu-Link.com,2013-01-29 12:56:00,
2013-01-29 08:11:00,32.9,31.6,30.01,NE,45,0.0,-999.0,95,-99.99,,,0.07,Acu-Link.com,2013-01-29 13:11:00,
2013-01-29 08:27:00,33.3,32.0,30.00,NE,45,0.0,-999.0,95,-99.99,,,0.07,Acu-Link.com,2013-01-29 13:27:00,
2013-01-29 08:42:00,33.6,32.3,30.01,NE,45,0.0,-999.0,95,-99.99,,,0.08,Acu-Link.com,2013-01-29 13:42:00,
2013-01-29 08:57:00,34.0,32.7,30.01,NE,45,0.0,-999.0,95,-99.99,,,0.08,Acu-Link.com,2013-01-29 13:57:00,
2013-01-29 09:13:00,34.2,32.7,30.01,NE,45,0.0,-999.0,94,-99.99,,,0.09,Acu-Link.com,2013-01-29 14:13:00,
2013-01-29 09:28:00,34.5,32.4,30.01,NE,45,0.0,-999.0,92,-99.99,,,0.09,Acu-Link.com,2013-01-29 14:28:00,
2013-01-29 09:43:00,35.1,33.0,30.01,NE,45,0.0,-999.0,92,-99.99,,,0.10,Acu-Link.com,2013-01-29 14:43:00,
2013-01-29 09:59:00,35.4,33.3,30.01,NE,45,0.0,-999.0,92,-99.99,,,0.10,Acu-Link.com,2013-01-29 14:59:00,
2013-01-29 10:14:00,35.2,32.8,30.01,SSE,157,1.7,-999.0,91,-99.99,,,0.11,Acu-Link.com,2013-01-29 15:14:00,
2013-01-29 10:30:00,35.2,33.1,30.01,SSE,157,0.0,-999.0,92,-99.99,,,0.12,Acu-Link.com,2013-01-29 15:30:00,
2013-01-29 10:45:00,35.8,33.2,30.01,SSE,157,0.0,-999.0,90,-99.99,,,0.12,Acu-Link.com,2013-01-29 15:45:00,
2013-01-29 11:00:00,35.8,33.4,30.00,SSE,157,0.0,-999.0,91,-99.99,,,0.13,Acu-Link.com,2013-01-29 16:00:00,
2013-01-29 11:16:00,35.8,33.4,30.01,South,180,1.1,-999.0,91,-99.99,,,0.13,Acu-Link.com,2013-01-29 16:16:00,
2013-01-29 11:31:00,35.6,33.2,30.00,South,180,0.0,-999.0,91,-99.99,,,0.13,Acu-Link.com,2013-01-29 16:31:00,
2013-01-29 11:46:00,35.8,33.7,29.99,SSE,157,1.7,-999.0,92,-99.99,,,0.14,Acu-Link.com,2013-01-29 16:46:00,
2013-01-29 12:01:00,36.1,34.0,29.98,SSE,157,2.2,-999.0,92,-99.99,,,0.14,Acu-Link.com,2013-01-29 17:01:00,
2013-01-29 12:17:00,36.5,34.4,29.97,SSE,157,0.0,-999.0,92,-99.99,,,0.14,Acu-Link.com,2013-01-29 17:17:00,
2013-01-29 12:32:00,36.5,34.1,29.97,SSE,157,2.2,-999.0,91,-99.99,,,0.14,Acu-Link.com,2013-01-29 17:32:00,
2013-01-29 12:47:00,36.9,34.5,29.95,East,90,0.0,-999.0,91,-99.99,,,0.15,Acu-Link.com,2013-01-29 17:47:00,
2013-01-29 13:03:00,37.0,34.6,29.95,East,90,0.0,-999.0,91,-99.99,,,0.15,Acu-Link.com,2013-01-29 18:03:00,
2013-01-29 13:18:00,37.0,34.6,29.94,East,90,0.0,-999.0,91,-99.99,,,0.15,Acu-Link.com,2013-01-29 18:18:00,
2013-01-29 13:34:00,36.5,34.4,29.93,East,90,0.0,-999.0,92,-99.99,,,0.15,Acu-Link.com,2013-01-29 18:34:00,
2013-01-29 13:49:00,36.3,34.5,29.93,East,90,0.0,-999.0,93,-99.99,,,0.15,Acu-Link.com,2013-01-29 18:49:00,
2013-01-29 14:05:00,36.7,34.9,29.92,East,90,0.0,-999.0,93,-99.99,,,0.15,Acu-Link.com,2013-01-29 19:05:00,
2013-01-29 14:20:00,36.7,34.9,29.91,East,90,0.0,-999.0,93,-99.99,,,0.15,Acu-Link.com,2013-01-29 19:20:00,
2013-01-29 14:35:00,36.3,34.5,29.90,East,90,0.0,-999.0,93,-99.99,,,0.15,Acu-Link.com,2013-01-29 19:35:00,
2013-01-29 14:51:00,35.8,34.0,29.89,East,90,1.7,-999.0,93,-99.99,,,0.15,Acu-Link.com,2013-01-29 19:51:00,
2013-01-29 15:06:00,35.6,33.8,29.89,East,90,0.0,-999.0,93,-99.99,,,0.16,Acu-Link.com,2013-01-29 20:06:00,
2013-01-29 15:21:00,35.8,34.2,29.90,East,90,0.0,-999.0,94,-99.99,,,0.16,Acu-Link.com,2013-01-29 20:21:00,
2013-01-29 15:36:00,35.6,34.0,29.92,East,90,2.7,-999.0,94,-99.99,,,0.16,Acu-Link.com,2013-01-29 20:36:00,
2013-01-29 15:52:00,35.6,34.0,29.94,WNW,292,0.0,-999.0,94,-99.99,,,0.16,Acu-Link.com,2013-01-29 20:52:00,
2013-01-29 16:07:00,36.1,34.8,29.91,ESE,112,2.2,-999.0,95,-99.99,,,0.17,Acu-Link.com,2013-01-29 21:07:00,
2013-01-29 16:22:00,36.1,34.8,29.92,ESE,112,0.0,-999.0,95,-99.99,,,0.17,Acu-Link.com,2013-01-29 21:22:00,
2013-01-29 16:38:00,36.1,34.8,29.91,ESE,112,0.0,-999.0,95,-99.99,,,0.17,Acu-Link.com,2013-01-29 21:38:00,
2013-01-29 16:53:00,36.1,34.8,29.91,ESE,112,0.0,-999.0,95,-99.99,,,0.17,Acu-Link.com,2013-01-29 21:53:00,
2013-01-29 17:08:00,35.8,34.5,29.92,ESE,112,0.0,-999.0,95,-99.99,,,0.17,Acu-Link.com,2013-01-29 22:08:00,
2013-01-29 17:24:00,36.1,35.1,29.93,ESE,112,0.0,-999.0,96,-99.99,,,0.17,Acu-Link.com,2013-01-29 22:24:00,
2013-01-29 17:39:00,35.8,34.8,29.94,WSW,247,0.0,-999.0,96,-99.99,,,0.17,Acu-Link.com,2013-01-29 22:39:00,
2013-01-29 17:54:00,36.0,35.0,29.93,SSW,202,0.0,-999.0,96,-99.99,,,0.17,Acu-Link.com,2013-01-29 22:54:00,
2013-01-29 18:10:00,36.0,35.0,29.93,SSW,202,0.0,-999.0,96,-99.99,,,0.17,Acu-Link.com,2013-01-29 23:10:00,
2013-01-29 18:25:00,36.0,35.0,29.93,SSW,202,0.0,-999.0,96,-99.99,,,0.17,Acu-Link.com,2013-01-29 23:25:00,
2013-01-29 18:40:00,36.0,35.0,29.92,SSW,202,0.0,-999.0,96,-99.99,,,0.17,Acu-Link.com,2013-01-29 23:40:00,
2013-01-29 18:56:00,36.1,35.1,29.92,SSW,202,0.0,-999.0,96,-99.99,,,0.17,Acu-Link.com,2013-01-29 23:56:00,
2013-01-29 19:11:00,36.1,35.1,29.92,SSW,202,0.0,-999.0,96,-99.99,,,0.17,Acu-Link.com,2013-01-30 00:11:00,
2013-01-29 19:26:00,35.6,34.6,29.91,SSW,202,0.0,-999.0,96,-99.99,,,0.17,Acu-Link.com,2013-01-30 00:26:00,
2013-01-29 19:42:00,35.4,34.4,29.91,SSW,202,0.0,-999.0,96,-99.99,,,0.17,Acu-Link.com,2013-01-30 00:42:00,
2013-01-29 19:57:00,35.2,34.2,29.91,SSW,202,0.0,-999.0,96,-99.99,,,0.17,Acu-Link.com,2013-01-30 00:57:00,
2013-01-29 20:12:00,35.4,34.4,29.91,SSW,202,0.0,-999.0,96,-99.99,,,0.17,Acu-Link.com,2013-01-30 01:12:00,
2013-01-29 20:28:00,35.2,34.2,29.90,SSW,202,0.0,-999.0,96,-99.99,,,0.17,Acu-Link.com,2013-01-30 01:28:00,
2013-01-29 20:43:00,35.1,34.1,29.89,SSW,202,0.0,-999.0,96,-99.99,,,0.17,Acu-Link.com,2013-01-30 01:43:00,
2013-01-29 20:58:00,34.9,33.9,29.89,SSW,202,0.0,-999.0,96,-99.99,,,0.17,Acu-Link.com,2013-01-30 01:58:00,
2013-01-29 21:14:00,34.7,33.7,29.88,SSW,202,0.0,-999.0,96,-99.99,,,0.17,Acu-Link.com,2013-01-30 02:14:00,
2013-01-29 21:29:00,34.5,33.5,29.88,SSW,202,0.0,-999.0,96,-99.99,,,0.17,Acu-Link.com,2013-01-30 02:29:00,
2013-01-29 21:44:00,34.3,33.3,29.88,SSW,202,0.0,-999.0,96,-99.99,,,0.17,Acu-Link.com,2013-01-30 02:44:00,
2013-01-29 22:00:00,34.2,33.2,29.87,SSW,202,0.0,-999.0,96,-99.99,,,0.17,Acu-Link.com,2013-01-30 03:00:00,
2013-01-29 22:15:00,34.3,33.3,29.88,SSW,202,0.0,-999.0,96,-99.99,,,0.17,Acu-Link.com,2013-01-30 03:15:00,
2013-01-29 22:30:00,34.3,33.3,29.87,SSW,202,0.0,-999.0,96,-99.99,,,0.17,Acu-Link.com,2013-01-30 03:30:00,
2013-01-29 22:46:00,34.3,33.3,29.87,SSW,202,0.0,-999.0,96,-99.99,,,0.17,Acu-Link.com,2013-01-30 03:46:00,
2013-01-29 23:01:00,34.2,33.2,29.86,SSW,202,0.0,-999.0,96,-99.99,,,0.17,Acu-Link.com,2013-01-30 04:01:00,
2013-01-29 23:16:00,34.0,33.0,29.86,SSW,202,0.0,-999.0,96,-99.99,,,0.17,Acu-Link.com,2013-01-30 04:16:00,
2013-01-29 23:31:00,33.8,32.8,29.86,SSW,202,0.0,-999.0,96,-99.99,,,0.17,Acu-Link.com,2013-01-30 04:31:00,
2013-01-29 23:47:00,34.0,33.0,29.84,SSW,202,0.0,-999.0,96,-99.99,,,0.17,Acu-Link.com,2013-01-30 04:47:00,